sensor_id;sensor_type;location;lat;lon;timestamp;P1;durP1;ratioP1;P2;durP2;ratioP2
71979;SDS011;59853;48.190;11.860;2022-08-01T00:01:32;2.75;;;2.03;;
71979;SDS011;59853;48.190;11.860;2022-08-01T00:03:57;3.65;;;1.98;;
71979;SDS011;59853;48.190;11.860;2022-08-01T00:06:23;6.95;;;2.17;;
71979;SDS011;59853;48.190;11.860;2022-08-01T00:08:48;2.75;;;1.85;;
71979;SDS011;59853;48.190;11.860;2022-08-01T00:11:13;3.05;;;2.25;;
71979;SDS011;59853;48.190;11.860;2022-08-01T00:13:39;2.83;;;2.05;;
71979;SDS011;59853;48.190;11.860;2022-08-01T00:16:04;3.70;;;2.20;;
71979;SDS011;59853;48.190;11.860;2022-08-01T00:18:30;3.05;;;2.22;;
71979;SDS011;59853;48.190;11.860;2022-08-01T00:20:55;3.60;;;1.92;;
71979;SDS011;59853;48.190;11.860;2022-08-01T00:23:20;2.70;;;2.15;;
71979;SDS011;59853;48.190;11.860;2022-08-01T00:25:46;2.45;;;2.00;;
71979;SDS011;59853;48.190;11.860;2022-08-01T00:28:11;5.20;;;2.10;;
71979;SDS011;59853;48.190;11.860;2022-08-01T00:30:38;3.95;;;2.00;;
71979;SDS011;59853;48.190;11.860;2022-08-01T00:33:03;3.00;;;2.10;;
71979;SDS011;59853;48.190;11.860;2022-08-01T00:35:29;4.80;;;1.98;;
71979;SDS011;59853;48.190;11.860;2022-08-01T00:37:54;4.97;;;2.05;;
71979;SDS011;59853;48.190;11.860;2022-08-01T00:40:20;3.67;;;2.05;;
71979;SDS011;59853;48.190;11.860;2022-08-01T00:42:45;3.00;;;1.92;;
71979;SDS011;59853;48.190;11.860;2022-08-01T00:45:11;3.60;;;2.10;;
71979;SDS011;59853;48.190;11.860;2022-08-01T00:47:36;4.18;;;2.13;;
71979;SDS011;59853;48.190;11.860;2022-08-01T00:50:03;2.42;;;1.88;;
71979;SDS011;59853;48.190;11.860;2022-08-01T00:52:29;3.15;;;2.00;;
71979;SDS011;59853;48.190;11.860;2022-08-01T00:54:55;2.80;;;2.08;;
71979;SDS011;59853;48.190;11.860;2022-08-01T00:57:20;5.18;;;1.90;;
71979;SDS011;59853;48.190;11.860;2022-08-01T00:59:46;3.88;;;2.15;;
71979;SDS011;59853;48.190;11.860;2022-08-01T01:02:12;4.65;;;2.20;;
71979;SDS011;59853;48.190;11.860;2022-08-01T01:04:37;2.42;;;1.80;;
71979;SDS011;59853;48.190;11.860;2022-08-01T01:10:09;4.00;;;2.08;;
71979;SDS011;59853;48.190;11.860;2022-08-01T01:12:43;4.47;;;2.53;;
71979;SDS011;59853;48.190;11.860;2022-08-01T01:17:50;3.85;;;2.10;;
71979;SDS011;59853;48.190;11.860;2022-08-01T01:20:18;3.60;;;2.28;;
71979;SDS011;59853;48.190;11.860;2022-08-01T01:25:39;3.20;;;2.20;;
71979;SDS011;59853;48.190;11.860;2022-08-01T01:31:02;3.45;;;2.28;;
71979;SDS011;59853;48.190;11.860;2022-08-01T01:33:30;4.43;;;2.17;;
71979;SDS011;59853;48.190;11.860;2022-08-01T01:35:59;3.00;;;2.00;;
71979;SDS011;59853;48.190;11.860;2022-08-01T01:38:27;3.55;;;2.10;;
71979;SDS011;59853;48.190;11.860;2022-08-01T01:40:54;3.28;;;2.20;;
71979;SDS011;59853;48.190;11.860;2022-08-01T01:43:21;6.68;;;2.40;;
71979;SDS011;59853;48.190;11.860;2022-08-01T01:45:47;4.10;;;2.10;;
71979;SDS011;59853;48.190;11.860;2022-08-01T01:48:14;2.97;;;2.17;;
71979;SDS011;59853;48.190;11.860;2022-08-01T01:50:42;4.10;;;2.25;;
71979;SDS011;59853;48.190;11.860;2022-08-01T01:53:08;3.38;;;2.20;;
71979;SDS011;59853;48.190;11.860;2022-08-01T01:55:35;4.20;;;2.35;;
71979;SDS011;59853;48.190;11.860;2022-08-01T01:58:02;4.35;;;2.45;;
71979;SDS011;59853;48.190;11.860;2022-08-01T02:00:28;3.00;;;2.53;;
71979;SDS011;59853;48.190;11.860;2022-08-01T02:02:54;4.07;;;2.50;;
71979;SDS011;59853;48.190;11.860;2022-08-01T02:05:21;4.38;;;2.10;;
71979;SDS011;59853;48.190;11.860;2022-08-01T02:07:47;3.78;;;2.20;;
71979;SDS011;59853;48.190;11.860;2022-08-01T02:10:14;3.45;;;2.10;;
71979;SDS011;59853;48.190;11.860;2022-08-01T02:12:41;4.15;;;2.40;;
71979;SDS011;59853;48.190;11.860;2022-08-01T02:15:10;5.20;;;2.80;;
71979;SDS011;59853;48.190;11.860;2022-08-01T02:17:37;4.65;;;2.25;;
71979;SDS011;59853;48.190;11.860;2022-08-01T02:20:07;3.17;;;2.03;;
71979;SDS011;59853;48.190;11.860;2022-08-01T02:22:44;4.82;;;2.22;;
71979;SDS011;59853;48.190;11.860;2022-08-01T02:30:35;4.80;;;2.20;;
71979;SDS011;59853;48.190;11.860;2022-08-01T02:33:06;2.90;;;2.25;;
71979;SDS011;59853;48.190;11.860;2022-08-01T02:35:41;2.90;;;1.80;;
71979;SDS011;59853;48.190;11.860;2022-08-01T02:38:09;2.80;;;1.92;;
71979;SDS011;59853;48.190;11.860;2022-08-01T02:40:36;3.65;;;2.08;;
71979;SDS011;59853;48.190;11.860;2022-08-01T02:43:03;3.75;;;2.17;;
71979;SDS011;59853;48.190;11.860;2022-08-01T02:45:30;3.35;;;1.80;;
71979;SDS011;59853;48.190;11.860;2022-08-01T02:48:01;3.65;;;2.08;;
71979;SDS011;59853;48.190;11.860;2022-08-01T02:50:32;3.95;;;2.58;;
71979;SDS011;59853;48.190;11.860;2022-08-01T02:52:58;2.90;;;1.80;;
71979;SDS011;59853;48.190;11.860;2022-08-01T02:55:25;3.30;;;2.10;;
71979;SDS011;59853;48.190;11.860;2022-08-01T02:57:51;3.67;;;1.80;;
71979;SDS011;59853;48.190;11.860;2022-08-01T03:00:17;3.15;;;2.03;;
71979;SDS011;59853;48.190;11.860;2022-08-01T03:02:43;3.53;;;1.88;;
71979;SDS011;59853;48.190;11.860;2022-08-01T03:05:10;4.55;;;2.00;;
71979;SDS011;59853;48.190;11.860;2022-08-01T03:07:37;5.90;;;2.03;;
71979;SDS011;59853;48.190;11.860;2022-08-01T03:10:04;3.67;;;2.03;;
71979;SDS011;59853;48.190;11.860;2022-08-01T03:12:30;2.85;;;1.80;;
71979;SDS011;59853;48.190;11.860;2022-08-01T03:14:58;5.20;;;1.80;;
71979;SDS011;59853;48.190;11.860;2022-08-01T03:17:25;3.65;;;1.90;;
71979;SDS011;59853;48.190;11.860;2022-08-01T03:19:52;3.85;;;1.90;;
71979;SDS011;59853;48.190;11.860;2022-08-01T03:22:18;3.90;;;1.90;;
71979;SDS011;59853;48.190;11.860;2022-08-01T03:24:45;4.43;;;2.00;;
71979;SDS011;59853;48.190;11.860;2022-08-01T03:27:13;2.92;;;1.80;;
71979;SDS011;59853;48.190;11.860;2022-08-01T03:29:39;4.00;;;1.90;;
71979;SDS011;59853;48.190;11.860;2022-08-01T03:32:05;3.10;;;2.10;;
71979;SDS011;59853;48.190;11.860;2022-08-01T03:34:31;3.20;;;2.13;;
71979;SDS011;59853;48.190;11.860;2022-08-01T03:37:17;3.08;;;2.08;;
71979;SDS011;59853;48.190;11.860;2022-08-01T03:39:50;3.65;;;2.22;;
71979;SDS011;59853;48.190;11.860;2022-08-01T03:42:20;4.25;;;2.00;;
71979;SDS011;59853;48.190;11.860;2022-08-01T03:44:52;4.25;;;1.90;;
71979;SDS011;59853;48.190;11.860;2022-08-01T03:47:20;4.28;;;2.08;;
71979;SDS011;59853;48.190;11.860;2022-08-01T03:49:47;4.22;;;2.10;;
71979;SDS011;59853;48.190;11.860;2022-08-01T03:52:13;3.20;;;2.00;;
71979;SDS011;59853;48.190;11.860;2022-08-01T03:54:43;2.63;;;1.70;;
71979;SDS011;59853;48.190;11.860;2022-08-01T03:57:12;3.65;;;2.22;;
71979;SDS011;59853;48.190;11.860;2022-08-01T03:59:38;4.22;;;2.05;;
71979;SDS011;59853;48.190;11.860;2022-08-01T04:02:04;3.35;;;2.15;;
71979;SDS011;59853;48.190;11.860;2022-08-01T04:04:29;4.15;;;1.80;;
71979;SDS011;59853;48.190;11.860;2022-08-01T04:06:55;4.82;;;1.90;;
71979;SDS011;59853;48.190;11.860;2022-08-01T04:09:20;3.45;;;2.35;;
71979;SDS011;59853;48.190;11.860;2022-08-01T04:11:46;4.60;;;1.98;;
71979;SDS011;59853;48.190;11.860;2022-08-01T04:14:12;4.32;;;2.20;;
71979;SDS011;59853;48.190;11.860;2022-08-01T04:16:37;4.18;;;2.30;;
71979;SDS011;59853;48.190;11.860;2022-08-01T04:19:03;4.47;;;2.15;;
71979;SDS011;59853;48.190;11.860;2022-08-01T04:21:28;3.25;;;2.17;;
71979;SDS011;59853;48.190;11.860;2022-08-01T04:24:07;4.13;;;2.13;;
71979;SDS011;59853;48.190;11.860;2022-08-01T04:26:36;4.03;;;2.25;;
71979;SDS011;59853;48.190;11.860;2022-08-01T04:29:02;5.68;;;3.30;;
71979;SDS011;59853;48.190;11.860;2022-08-01T04:31:29;6.88;;;3.28;;
71979;SDS011;59853;48.190;11.860;2022-08-01T04:33:55;11.88;;;6.45;;
71979;SDS011;59853;48.190;11.860;2022-08-01T04:36:22;3.83;;;2.10;;
71979;SDS011;59853;48.190;11.860;2022-08-01T04:38:48;3.80;;;2.30;;
71979;SDS011;59853;48.190;11.860;2022-08-01T04:41:16;4.55;;;2.10;;
71979;SDS011;59853;48.190;11.860;2022-08-01T04:43:42;4.20;;;2.15;;
71979;SDS011;59853;48.190;11.860;2022-08-01T04:46:08;3.72;;;2.17;;
71979;SDS011;59853;48.190;11.860;2022-08-01T04:48:36;3.28;;;2.05;;
71979;SDS011;59853;48.190;11.860;2022-08-01T04:51:03;4.53;;;2.35;;
71979;SDS011;59853;48.190;11.860;2022-08-01T04:53:29;3.63;;;2.17;;
71979;SDS011;59853;48.190;11.860;2022-08-01T04:55:57;6.47;;;2.47;;
71979;SDS011;59853;48.190;11.860;2022-08-01T04:58:22;4.35;;;2.08;;
71979;SDS011;59853;48.190;11.860;2022-08-01T05:00:48;5.70;;;2.60;;
71979;SDS011;59853;48.190;11.860;2022-08-01T05:03:13;5.82;;;2.45;;
71979;SDS011;59853;48.190;11.860;2022-08-01T05:05:39;11.00;;;6.10;;
71979;SDS011;59853;48.190;11.860;2022-08-01T05:08:04;5.25;;;2.20;;
71979;SDS011;59853;48.190;11.860;2022-08-01T05:10:31;2.38;;;1.75;;
71979;SDS011;59853;48.190;11.860;2022-08-01T05:12:56;5.97;;;2.00;;
71979;SDS011;59853;48.190;11.860;2022-08-01T05:15:21;4.68;;;2.00;;
71979;SDS011;59853;48.190;11.860;2022-08-01T05:17:47;4.20;;;2.05;;
71979;SDS011;59853;48.190;11.860;2022-08-01T05:20:12;4.00;;;2.25;;
71979;SDS011;59853;48.190;11.860;2022-08-01T05:22:38;3.60;;;2.30;;
71979;SDS011;59853;48.190;11.860;2022-08-01T05:25:04;8.50;;;2.03;;
71979;SDS011;59853;48.190;11.860;2022-08-01T05:27:30;3.10;;;1.58;;
71979;SDS011;59853;48.190;11.860;2022-08-01T05:29:56;4.47;;;2.00;;
71979;SDS011;59853;48.190;11.860;2022-08-01T05:32:21;3.10;;;1.88;;
71979;SDS011;59853;48.190;11.860;2022-08-01T05:34:46;3.72;;;2.03;;
71979;SDS011;59853;48.190;11.860;2022-08-01T05:37:12;3.72;;;1.75;;
71979;SDS011;59853;48.190;11.860;2022-08-01T05:39:37;3.28;;;1.65;;
71979;SDS011;59853;48.190;11.860;2022-08-01T05:42:03;4.20;;;1.65;;
71979;SDS011;59853;48.190;11.860;2022-08-01T05:44:28;3.03;;;1.92;;
71979;SDS011;59853;48.190;11.860;2022-08-01T05:46:53;3.03;;;1.90;;
71979;SDS011;59853;48.190;11.860;2022-08-01T05:49:19;3.58;;;2.00;;
71979;SDS011;59853;48.190;11.860;2022-08-01T05:51:44;3.28;;;1.65;;
71979;SDS011;59853;48.190;11.860;2022-08-01T05:54:09;3.60;;;1.67;;
71979;SDS011;59853;48.190;11.860;2022-08-01T05:56:35;3.83;;;1.85;;
71979;SDS011;59853;48.190;11.860;2022-08-01T05:59:00;3.15;;;1.77;;
71979;SDS011;59853;48.190;11.860;2022-08-01T06:01:26;3.65;;;1.75;;
71979;SDS011;59853;48.190;11.860;2022-08-01T06:03:51;4.05;;;2.30;;
71979;SDS011;59853;48.190;11.860;2022-08-01T06:06:19;4.30;;;2.08;;
71979;SDS011;59853;48.190;11.860;2022-08-01T06:08:45;1999.90;;;999.90;;
71979;SDS011;59853;48.190;11.860;2022-08-01T06:11:10;5.35;;;2.30;;
71979;SDS011;59853;48.190;11.860;2022-08-01T06:13:35;40.58;;;38.78;;
71979;SDS011;59853;48.190;11.860;2022-08-01T06:16:01;39.92;;;38.30;;
71979;SDS011;59853;48.190;11.860;2022-08-01T06:18:26;36.42;;;34.95;;
71979;SDS011;59853;48.190;11.860;2022-08-01T06:20:52;21.02;;;20.17;;
71979;SDS011;59853;48.190;11.860;2022-08-01T06:23:17;24.38;;;23.27;;
71979;SDS011;59853;48.190;11.860;2022-08-01T06:25:42;20.17;;;19.33;;
71979;SDS011;59853;48.190;11.860;2022-08-01T06:28:08;23.67;;;22.70;;
71979;SDS011;59853;48.190;11.860;2022-08-01T06:30:33;22.38;;;21.48;;
71979;SDS011;59853;48.190;11.860;2022-08-01T06:32:58;26.83;;;25.75;;
71979;SDS011;59853;48.190;11.860;2022-08-01T06:35:25;16.17;;;15.48;;
71979;SDS011;59853;48.190;11.860;2022-08-01T06:37:51;39.92;;;38.15;;
71979;SDS011;59853;48.190;11.860;2022-08-01T06:40:16;7.32;;;7.03;;
71979;SDS011;59853;48.190;11.860;2022-08-01T06:42:42;7.72;;;7.40;;
71979;SDS011;59853;48.190;11.860;2022-08-01T06:45:10;12.95;;;12.43;;
71979;SDS011;59853;48.190;11.860;2022-08-01T06:47:37;16.50;;;15.80;;
71979;SDS011;59853;48.190;11.860;2022-08-01T06:50:07;17.33;;;16.63;;
71979;SDS011;59853;48.190;11.860;2022-08-01T06:54:59;212.82;;;38.95;;
71979;SDS011;59853;48.190;11.860;2022-08-01T06:57:24;42.75;;;28.13;;
71979;SDS011;59853;48.190;11.860;2022-08-01T06:59:49;54.03;;;51.33;;
71979;SDS011;59853;48.190;11.860;2022-08-01T07:02:15;38.75;;;36.60;;
71979;SDS011;59853;48.190;11.860;2022-08-01T07:04:40;36.38;;;34.42;;
71979;SDS011;59853;48.190;11.860;2022-08-01T07:07:06;60.40;;;57.35;;
71979;SDS011;59853;48.190;11.860;2022-08-01T07:09:31;257.63;;;237.43;;
71979;SDS011;59853;48.190;11.860;2022-08-01T07:11:56;158.73;;;147.68;;
71979;SDS011;59853;48.190;11.860;2022-08-01T07:14:22;1999.90;;;999.90;;
71979;SDS011;59853;48.190;11.860;2022-08-01T07:16:48;5.43;;;3.47;;
71979;SDS011;59853;48.190;11.860;2022-08-01T07:19:14;54.97;;;16.83;;
71979;SDS011;59853;48.190;11.860;2022-08-01T07:21:40;3.70;;;1.80;;
71979;SDS011;59853;48.190;11.860;2022-08-01T07:24:06;4.57;;;1.60;;
71979;SDS011;59853;48.190;11.860;2022-08-01T07:26:34;2.40;;;1.53;;
71979;SDS011;59853;48.190;11.860;2022-08-01T07:29:00;4.07;;;1.85;;
71979;SDS011;59853;48.190;11.860;2022-08-01T07:31:25;4.40;;;1.98;;
71979;SDS011;59853;48.190;11.860;2022-08-01T07:33:50;3.08;;;1.95;;
71979;SDS011;59853;48.190;11.860;2022-08-01T07:36:16;4.93;;;1.85;;
71979;SDS011;59853;48.190;11.860;2022-08-01T07:38:42;3.53;;;2.53;;
71979;SDS011;59853;48.190;11.860;2022-08-01T07:41:08;3.75;;;1.90;;
71979;SDS011;59853;48.190;11.860;2022-08-01T07:43:33;3.03;;;1.90;;
71979;SDS011;59853;48.190;11.860;2022-08-01T07:46:00;3.83;;;2.08;;
71979;SDS011;59853;48.190;11.860;2022-08-01T07:48:26;3.00;;;2.10;;
71979;SDS011;59853;48.190;11.860;2022-08-01T07:50:52;2.92;;;2.10;;
71979;SDS011;59853;48.190;11.860;2022-08-01T07:53:17;3.65;;;1.90;;
71979;SDS011;59853;48.190;11.860;2022-08-01T07:55:42;2.60;;;1.83;;
71979;SDS011;59853;48.190;11.860;2022-08-01T07:58:08;3.35;;;2.38;;
71979;SDS011;59853;48.190;11.860;2022-08-01T08:00:33;3.15;;;2.10;;
71979;SDS011;59853;48.190;11.860;2022-08-01T08:02:58;4.03;;;2.20;;
71979;SDS011;59853;48.190;11.860;2022-08-01T08:05:24;3.70;;;2.10;;
71979;SDS011;59853;48.190;11.860;2022-08-01T08:07:50;4.90;;;2.30;;
71979;SDS011;59853;48.190;11.860;2022-08-01T08:10:16;3.15;;;2.20;;
71979;SDS011;59853;48.190;11.860;2022-08-01T08:12:41;3.80;;;2.20;;
71979;SDS011;59853;48.190;11.860;2022-08-01T08:15:07;10.55;;;7.65;;
71979;SDS011;59853;48.190;11.860;2022-08-01T08:17:32;168.82;;;159.63;;
71979;SDS011;59853;48.190;11.860;2022-08-01T08:19:58;1999.90;;;999.90;;
71979;SDS011;59853;48.190;11.860;2022-08-01T08:22:24;1999.90;;;999.90;;
71979;SDS011;59853;48.190;11.860;2022-08-01T08:24:49;1999.90;;;999.90;;
71979;SDS011;59853;48.190;11.860;2022-08-01T08:27:14;384.95;;;292.92;;
71979;SDS011;59853;48.190;11.860;2022-08-01T08:29:40;1999.90;;;999.90;;
71979;SDS011;59853;48.190;11.860;2022-08-01T08:32:06;1999.90;;;999.90;;
71979;SDS011;59853;48.190;11.860;2022-08-01T08:34:32;548.65;;;492.98;;
71979;SDS011;59853;48.190;11.860;2022-08-01T08:36:57;1999.90;;;999.90;;
71979;SDS011;59853;48.190;11.860;2022-08-01T08:39:23;1999.90;;;999.90;;
71979;SDS011;59853;48.190;11.860;2022-08-01T08:41:49;1999.90;;;999.90;;
71979;SDS011;59853;48.190;11.860;2022-08-01T08:44:14;1999.90;;;999.90;;
71979;SDS011;59853;48.190;11.860;2022-08-01T08:46:42;560.85;;;497.15;;
71979;SDS011;59853;48.190;11.860;2022-08-01T08:49:09;1999.90;;;999.90;;
71979;SDS011;59853;48.190;11.860;2022-08-01T08:51:37;305.52;;;261.60;;
71979;SDS011;59853;48.190;11.860;2022-08-01T08:54:04;296.73;;;278.25;;
71979;SDS011;59853;48.190;11.860;2022-08-01T08:56:30;579.45;;;559.50;;
71979;SDS011;59853;48.190;11.860;2022-08-01T08:58:59;11.65;;;10.95;;
71979;SDS011;59853;48.190;11.860;2022-08-01T09:01:26;28.55;;;13.73;;
71979;SDS011;59853;48.190;11.860;2022-08-01T09:03:51;613.58;;;122.82;;
71979;SDS011;59853;48.190;11.860;2022-08-01T09:06:18;493.02;;;37.80;;
71979;SDS011;59853;48.190;11.860;2022-08-01T09:08:43;914.67;;;84.60;;
71979;SDS011;59853;48.190;11.860;2022-08-01T09:11:09;780.35;;;83.60;;
71979;SDS011;59853;48.190;11.860;2022-08-01T09:13:34;87.97;;;14.75;;
71979;SDS011;59853;48.190;11.860;2022-08-01T09:15:59;4.43;;;2.10;;
71979;SDS011;59853;48.190;11.860;2022-08-01T09:23:34;1565.72;;;779.58;;
71979;SDS011;59853;48.190;11.860;2022-08-01T09:26:03;2.33;;;1.38;;
71979;SDS011;59853;48.190;11.860;2022-08-01T09:28:29;2.70;;;1.35;;
71979;SDS011;59853;48.190;11.860;2022-08-01T09:30:56;3.00;;;1.75;;
71979;SDS011;59853;48.190;11.860;2022-08-01T09:33:21;3.47;;;1.95;;
71979;SDS011;59853;48.190;11.860;2022-08-01T09:35:56;2.60;;;1.70;;
71979;SDS011;59853;48.190;11.860;2022-08-01T09:38:23;4.38;;;1.52;;
71979;SDS011;59853;48.190;11.860;2022-08-01T09:40:55;1.50;;;0.98;;
71979;SDS011;59853;48.190;11.860;2022-08-01T09:43:23;4.43;;;1.33;;
71979;SDS011;59853;48.190;11.860;2022-08-01T09:45:49;2.85;;;1.35;;
71979;SDS011;59853;48.190;11.860;2022-08-01T09:48:15;6.10;;;1.30;;
71979;SDS011;59853;48.190;11.860;2022-08-01T09:50:41;1.88;;;1.27;;
71979;SDS011;59853;48.190;11.860;2022-08-01T09:53:08;2.75;;;1.13;;
71979;SDS011;59853;48.190;11.860;2022-08-01T09:55:34;3.90;;;1.50;;
71979;SDS011;59853;48.190;11.860;2022-08-01T09:58:00;2.42;;;1.20;;
71979;SDS011;59853;48.190;11.860;2022-08-01T10:00:26;2.50;;;1.50;;
71979;SDS011;59853;48.190;11.860;2022-08-01T10:02:52;97.30;;;11.55;;
71979;SDS011;59853;48.190;11.860;2022-08-01T10:05:29;1999.90;;;999.90;;
71979;SDS011;59853;48.190;11.860;2022-08-01T10:07:56;1999.90;;;999.90;;
71979;SDS011;59853;48.190;11.860;2022-08-01T10:10:27;1999.90;;;999.90;;
71979;SDS011;59853;48.190;11.860;2022-08-01T10:12:52;1999.90;;;999.90;;
71979;SDS011;59853;48.190;11.860;2022-08-01T10:15:20;1999.90;;;999.90;;
71979;SDS011;59853;48.190;11.860;2022-08-01T10:17:47;1999.90;;;999.90;;
71979;SDS011;59853;48.190;11.860;2022-08-01T10:20:19;1999.90;;;999.90;;
71979;SDS011;59853;48.190;11.860;2022-08-01T10:22:46;1999.90;;;999.90;;
71979;SDS011;59853;48.190;11.860;2022-08-01T10:25:13;1999.90;;;999.90;;
71979;SDS011;59853;48.190;11.860;2022-08-01T10:27:42;1999.90;;;999.90;;
71979;SDS011;59853;48.190;11.860;2022-08-01T10:30:11;1999.90;;;999.90;;
71979;SDS011;59853;48.190;11.860;2022-08-01T10:32:37;1999.90;;;999.90;;
71979;SDS011;59853;48.190;11.860;2022-08-01T10:35:05;1999.90;;;999.90;;
71979;SDS011;59853;48.190;11.860;2022-08-01T10:37:33;1999.90;;;999.90;;
71979;SDS011;59853;48.190;11.860;2022-08-01T10:40:00;1999.90;;;999.90;;
71979;SDS011;59853;48.190;11.860;2022-08-01T10:42:26;1999.90;;;999.90;;
71979;SDS011;59853;48.190;11.860;2022-08-01T10:44:52;1999.90;;;999.90;;
71979;SDS011;59853;48.190;11.860;2022-08-01T10:47:21;1999.90;;;999.90;;
71979;SDS011;59853;48.190;11.860;2022-08-01T10:49:51;1999.90;;;999.90;;
71979;SDS011;59853;48.190;11.860;2022-08-01T10:52:20;1999.90;;;999.90;;
71979;SDS011;59853;48.190;11.860;2022-08-01T10:54:45;1999.90;;;999.90;;
71979;SDS011;59853;48.190;11.860;2022-08-01T10:57:11;1999.90;;;999.90;;
71979;SDS011;59853;48.190;11.860;2022-08-01T10:59:47;1999.90;;;999.90;;
71979;SDS011;59853;48.190;11.860;2022-08-01T11:02:25;1999.90;;;999.90;;
71979;SDS011;59853;48.190;11.860;2022-08-01T11:04:55;1999.90;;;999.90;;
71979;SDS011;59853;48.190;11.860;2022-08-01T11:08:06;1999.90;;;999.90;;
71979;SDS011;59853;48.190;11.860;2022-08-01T11:10:35;1999.90;;;999.90;;
71979;SDS011;59853;48.190;11.860;2022-08-01T11:13:03;3.03;;;1.73;;
71979;SDS011;59853;48.190;11.860;2022-08-01T11:15:32;1.88;;;1.27;;
71979;SDS011;59853;48.190;11.860;2022-08-01T11:17:58;2.88;;;1.40;;
71979;SDS011;59853;48.190;11.860;2022-08-01T11:20:25;2.42;;;1.27;;
71979;SDS011;59853;48.190;11.860;2022-08-01T11:30:49;2.15;;;1.30;;
71979;SDS011;59853;48.190;11.860;2022-08-01T11:33:16;2.58;;;1.30;;
71979;SDS011;59853;48.190;11.860;2022-08-01T11:38:36;1.90;;;1.15;;
71979;SDS011;59853;48.190;11.860;2022-08-01T11:41:16;620.85;;;56.00;;
71979;SDS011;59853;48.190;11.860;2022-08-01T11:43:59;2.70;;;1.30;;
71979;SDS011;59853;48.190;11.860;2022-08-01T11:52:01;1999.90;;;999.90;;
71979;SDS011;59853;48.190;11.860;2022-08-01T11:57:07;1999.90;;;999.90;;
71979;SDS011;59853;48.190;11.860;2022-08-01T11:59:41;1999.90;;;999.90;;
71979;SDS011;59853;48.190;11.860;2022-08-01T12:07:22;6.72;;;6.32;;
71979;SDS011;59853;48.190;11.860;2022-08-01T12:09:48;3.35;;;1.20;;
71979;SDS011;59853;48.190;11.860;2022-08-01T12:12:22;70.10;;;67.57;;
71979;SDS011;59853;48.190;11.860;2022-08-01T12:14:54;1999.90;;;969.20;;
71979;SDS011;59853;48.190;11.860;2022-08-01T12:17:35;27.80;;;6.78;;
71979;SDS011;59853;48.190;11.860;2022-08-01T12:20:08;2.13;;;1.13;;
71979;SDS011;59853;48.190;11.860;2022-08-01T12:22:35;717.95;;;67.28;;
71979;SDS011;59853;48.190;11.860;2022-08-01T12:25:17;543.10;;;55.67;;
71979;SDS011;59853;48.190;11.860;2022-08-01T12:27:43;3.33;;;3.03;;
71979;SDS011;59853;48.190;11.860;2022-08-01T12:30:11;422.13;;;33.40;;
71979;SDS011;59853;48.190;11.860;2022-08-01T12:32:38;4.45;;;1.15;;
71979;SDS011;59853;48.190;11.860;2022-08-01T12:35:06;3.25;;;1.00;;
71979;SDS011;59853;48.190;11.860;2022-08-01T12:37:36;29.05;;;3.10;;
71979;SDS011;59853;48.190;11.860;2022-08-01T12:40:08;1.63;;;1.10;;
71979;SDS011;59853;48.190;11.860;2022-08-01T12:42:39;2.58;;;0.80;;
71979;SDS011;59853;48.190;11.860;2022-08-01T12:45:09;1.50;;;0.90;;
71979;SDS011;59853;48.190;11.860;2022-08-01T12:47:37;2.63;;;1.10;;
71979;SDS011;59853;48.190;11.860;2022-08-01T12:50:07;3.15;;;1.17;;
71979;SDS011;59853;48.190;11.860;2022-08-01T12:52:35;1.27;;;0.80;;
71979;SDS011;59853;48.190;11.860;2022-08-01T12:55:09;285.02;;;264.83;;
71979;SDS011;59853;48.190;11.860;2022-08-01T12:57:37;873.42;;;79.25;;
71979;SDS011;59853;48.190;11.860;2022-08-01T13:00:18;110.88;;;37.97;;
71979;SDS011;59853;48.190;11.860;2022-08-01T13:02:46;2.38;;;1.42;;
71979;SDS011;59853;48.190;11.860;2022-08-01T13:05:13;1.55;;;0.65;;
71979;SDS011;59853;48.190;11.860;2022-08-01T13:10:05;2.33;;;0.85;;
71979;SDS011;59853;48.190;11.860;2022-08-01T13:12:31;1.52;;;0.70;;
71979;SDS011;59853;48.190;11.860;2022-08-01T13:14:56;2.85;;;0.80;;
71979;SDS011;59853;48.190;11.860;2022-08-01T13:17:31;1.90;;;0.73;;
71979;SDS011;59853;48.190;11.860;2022-08-01T13:19:57;1.75;;;0.75;;
71979;SDS011;59853;48.190;11.860;2022-08-01T13:22:31;1.60;;;0.85;;
71979;SDS011;59853;48.190;11.860;2022-08-01T13:25:10;3.15;;;0.95;;
71979;SDS011;59853;48.190;11.860;2022-08-01T13:27:39;1.40;;;0.73;;
71979;SDS011;59853;48.190;11.860;2022-08-01T13:30:18;1.20;;;0.75;;
71979;SDS011;59853;48.190;11.860;2022-08-01T13:32:56;3.60;;;0.70;;
71979;SDS011;59853;48.190;11.860;2022-08-01T13:35:22;2.80;;;0.80;;
71979;SDS011;59853;48.190;11.860;2022-08-01T13:37:48;1.52;;;0.73;;
71979;SDS011;59853;48.190;11.860;2022-08-01T13:40:22;1.70;;;0.73;;
71979;SDS011;59853;48.190;11.860;2022-08-01T13:42:48;177.90;;;17.10;;
71979;SDS011;59853;48.190;11.860;2022-08-01T13:45:14;4.10;;;1.20;;
71979;SDS011;59853;48.190;11.860;2022-08-01T13:47:39;4.15;;;1.30;;
71979;SDS011;59853;48.190;11.860;2022-08-01T13:50:05;5.60;;;1.10;;
71979;SDS011;59853;48.190;11.860;2022-08-01T13:52:30;4.55;;;0.85;;
71979;SDS011;59853;48.190;11.860;2022-08-01T13:54:56;3.35;;;1.00;;
71979;SDS011;59853;48.190;11.860;2022-08-01T13:57:22;2.83;;;1.08;;
71979;SDS011;59853;48.190;11.860;2022-08-01T13:59:47;1.80;;;0.90;;
71979;SDS011;59853;48.190;11.860;2022-08-01T14:02:12;3.72;;;0.90;;
71979;SDS011;59853;48.190;11.860;2022-08-01T14:04:38;2.20;;;0.80;;
71979;SDS011;59853;48.190;11.860;2022-08-01T14:07:03;3.08;;;0.95;;
71979;SDS011;59853;48.190;11.860;2022-08-01T14:09:29;2.58;;;1.10;;
71979;SDS011;59853;48.190;11.860;2022-08-01T14:11:54;3.25;;;1.25;;
71979;SDS011;59853;48.190;11.860;2022-08-01T14:14:19;2.20;;;1.08;;
71979;SDS011;59853;48.190;11.860;2022-08-01T14:16:45;1.80;;;0.90;;
71979;SDS011;59853;48.190;11.860;2022-08-01T14:21:37;3.03;;;1.20;;
71979;SDS011;59853;48.190;11.860;2022-08-01T14:24:03;2.80;;;1.05;;
71979;SDS011;59853;48.190;11.860;2022-08-01T14:26:28;2.47;;;0.90;;
71979;SDS011;59853;48.190;11.860;2022-08-01T14:28:54;2.00;;;0.88;;
71979;SDS011;59853;48.190;11.860;2022-08-01T14:31:19;1.65;;;0.88;;
71979;SDS011;59853;48.190;11.860;2022-08-01T14:33:45;2.80;;;0.93;;
71979;SDS011;59853;48.190;11.860;2022-08-01T14:36:11;3.03;;;1.00;;
71979;SDS011;59853;48.190;11.860;2022-08-01T14:38:36;4.72;;;1.00;;
71979;SDS011;59853;48.190;11.860;2022-08-01T14:41:01;1.55;;;0.98;;
71979;SDS011;59853;48.190;11.860;2022-08-01T14:43:28;3.63;;;1.05;;
71979;SDS011;59853;48.190;11.860;2022-08-01T14:45:53;2.10;;;1.20;;
71979;SDS011;59853;48.190;11.860;2022-08-01T14:48:19;3.50;;;1.30;;
71979;SDS011;59853;48.190;11.860;2022-08-01T14:50:45;5.75;;;1.10;;
71979;SDS011;59853;48.190;11.860;2022-08-01T14:53:10;2.10;;;0.98;;
71979;SDS011;59853;48.190;11.860;2022-08-01T14:55:36;3.10;;;1.00;;
71979;SDS011;59853;48.190;11.860;2022-08-01T14:58:01;4.88;;;1.13;;
71979;SDS011;59853;48.190;11.860;2022-08-01T15:00:27;2.63;;;1.13;;
71979;SDS011;59853;48.190;11.860;2022-08-01T15:02:52;3.28;;;1.20;;
71979;SDS011;59853;48.190;11.860;2022-08-01T15:05:17;2.60;;;0.95;;
71979;SDS011;59853;48.190;11.860;2022-08-01T15:07:43;2.10;;;1.00;;
71979;SDS011;59853;48.190;11.860;2022-08-01T15:10:08;3.03;;;0.90;;
71979;SDS011;59853;48.190;11.860;2022-08-01T15:12:34;3.70;;;1.00;;
71979;SDS011;59853;48.190;11.860;2022-08-01T15:14:59;2.38;;;1.00;;